createdAt,value
2019-02-07T00:01:52.057Z,49.47
2019-02-07T00:04:18.942Z,47.20
2019-02-07T00:06:45.686Z,51.10
2019-02-07T00:09:12.412Z,50.93
2019-02-07T00:11:39.122Z,45.90
2019-02-07T00:14:06.005Z,53.50
2019-02-07T00:16:33.505Z,46.30
2019-02-07T00:19:00.212Z,53.03
2019-02-07T00:21:27.046Z,45.33
2019-02-07T00:23:53.909Z,46.67
2019-02-07T00:26:20.715Z,50.23
2019-02-07T00:28:47.564Z,39.80
2019-02-07T00:31:14.599Z,42.53
2019-02-07T00:33:41.340Z,44.30
2019-02-07T00:36:08.092Z,48.77
2019-02-07T00:38:34.919Z,43.40
2019-02-07T00:41:02.134Z,47.63
2019-02-07T00:43:28.928Z,44.20
2019-02-07T00:45:55.651Z,43.03
2019-02-07T00:48:22.400Z,46.60
2019-02-07T00:50:49.541Z,50.27
2019-02-07T00:53:16.699Z,50.13
2019-02-07T00:55:43.427Z,50.73
2019-02-07T00:58:10.277Z,51.53
2019-02-07T01:00:37.009Z,46.07
2019-02-07T01:03:03.760Z,47.17
2019-02-07T01:05:30.597Z,42.43
2019-02-07T01:07:57.850Z,55.33
2019-02-07T01:10:24.580Z,46.53
2019-02-07T01:12:51.328Z,45.47
2019-02-07T01:15:18.070Z,46.33
2019-02-07T01:17:44.847Z,41.80
2019-02-07T01:20:11.651Z,48.40
2019-02-07T01:22:38.377Z,50.83
2019-02-07T01:25:05.128Z,45.30
2019-02-07T01:27:32.163Z,40.83
2019-02-07T01:29:59.010Z,46.47
2019-02-07T01:32:25.747Z,44.63
2019-02-07T01:34:52.486Z,43.87
2019-02-07T01:37:19.338Z,43.47
2019-02-07T01:39:46.177Z,51.67
2019-02-07T01:42:13.010Z,48.03
2019-02-07T01:44:39.758Z,52.20
2019-02-07T01:47:06.694Z,50.87
2019-02-07T01:49:33.433Z,47.27
2019-02-07T01:52:00.180Z,42.60
2019-02-07T01:54:27.016Z,45.87
2019-02-07T01:56:53.866Z,44.07
2019-02-07T01:59:20.601Z,48.60
2019-02-07T02:01:47.445Z,52.43
2019-02-07T02:04:14.182Z,51.27
2019-02-07T02:06:41.026Z,47.60
2019-02-07T02:09:07.873Z,51.13
2019-02-07T02:11:34.599Z,47.37
2019-02-07T02:14:01.541Z,43.97
2019-02-07T02:16:28.177Z,46.07
2019-02-07T02:18:55.029Z,49.73
2019-02-07T02:21:21.721Z,46.33
2019-02-07T02:23:48.710Z,43.90
2019-02-07T02:26:15.441Z,47.43
2019-02-07T02:28:42.183Z,49.77
2019-02-07T02:31:09.037Z,46.37
2019-02-07T02:33:35.775Z,42.13
2019-02-07T02:36:02.518Z,47.03
2019-02-07T02:38:29.246Z,47.93
2019-02-07T02:40:55.991Z,44.17
2019-02-07T02:43:23.663Z,38.37
2019-02-07T02:45:50.380Z,45.17
2019-02-07T02:48:17.121Z,46.70
2019-02-07T02:50:43.858Z,46.63
2019-02-07T02:53:10.623Z,45.67
2019-02-07T02:55:37.453Z,49.93
2019-02-07T02:58:04.193Z,50.77
2019-02-07T03:00:30.927Z,46.53
2019-02-07T03:02:57.670Z,43.70
2019-02-07T03:05:24.398Z,50.27
2019-02-07T03:07:51.249Z,44.57
2019-02-07T03:10:17.948Z,47.93
2019-02-07T03:12:44.718Z,44.10
2019-02-07T03:15:11.469Z,51.93
2019-02-07T03:17:38.307Z,50.03
2019-02-07T03:20:05.550Z,47.93
2019-02-07T03:22:32.289Z,43.00
2019-02-07T03:24:59.099Z,44.67
2019-02-07T03:27:25.870Z,43.20
2019-02-07T03:29:52.624Z,48.10
2019-02-07T03:32:19.460Z,44.10
2019-02-07T03:34:46.197Z,53.47
2019-02-07T03:37:12.932Z,47.37
2019-02-07T03:39:40.089Z,46.57
2019-02-07T03:42:06.817Z,52.50
2019-02-07T03:44:33.866Z,48.93
2019-02-07T03:47:00.613Z,52.93
2019-02-07T03:49:27.465Z,59.50
2019-02-07T03:51:54.291Z,53.07
2019-02-07T03:54:21.024Z,49.07
2019-02-07T03:56:48.081Z,49.53
2019-02-07T03:59:14.862Z,59.53
2019-02-07T04:01:41.658Z,57.23
2019-02-07T04:04:08.396Z,48.13
2019-02-07T04:06:35.133Z,57.77
2019-02-07T04:09:02.189Z,49.07
2019-02-07T04:11:28.919Z,55.77
2019-02-07T04:13:55.674Z,52.97
2019-02-07T04:16:22.706Z,48.33
2019-02-07T04:18:49.446Z,49.67
2019-02-07T04:21:16.286Z,54.93
2019-02-07T04:23:43.023Z,46.53
2019-02-07T04:26:09.727Z,54.47
2019-02-07T04:28:36.511Z,55.90
2019-02-07T04:31:03.255Z,50.47
2019-02-07T04:33:30.499Z,52.00
2019-02-07T04:35:57.349Z,51.90
2019-02-07T04:38:24.072Z,52.87
2019-02-07T04:40:50.927Z,52.17
2019-02-07T04:43:17.666Z,57.33
2019-02-07T04:45:44.749Z,52.80
2019-02-07T04:48:11.546Z,55.57
2019-02-07T04:50:38.398Z,46.27
2019-02-07T04:53:05.335Z,54.27
2019-02-07T04:55:32.070Z,56.73
2019-02-07T04:57:58.913Z,48.80
2019-02-07T05:00:25.651Z,51.23
2019-02-07T05:02:52.420Z,49.83
2019-02-07T05:05:19.200Z,44.07
2019-02-07T05:07:45.980Z,47.63
2019-02-07T05:10:13.133Z,47.67
2019-02-07T05:12:39.866Z,45.50
2019-02-07T05:15:06.722Z,41.63
2019-02-07T05:17:33.441Z,48.90
2019-02-07T05:20:00.390Z,50.97
2019-02-07T05:22:27.231Z,47.50
2019-02-07T05:24:53.920Z,52.10
2019-02-07T05:27:20.711Z,48.03
2019-02-07T05:29:47.969Z,49.53
2019-02-07T05:32:14.821Z,54.40
2019-02-07T05:34:41.647Z,50.97
2019-02-07T05:37:08.395Z,61.57
2019-02-07T05:39:35.282Z,53.53
2019-02-07T05:42:02.076Z,49.57
2019-02-07T05:44:28.910Z,38.93
2019-02-07T05:46:56.088Z,45.23
2019-02-07T05:49:23.319Z,48.57
2019-02-07T05:51:50.042Z,51.57
2019-02-07T05:54:16.780Z,47.80
2019-02-07T05:56:43.531Z,43.03
2019-02-07T05:59:10.363Z,41.53
2019-02-07T06:01:37.100Z,41.20
2019-02-07T06:04:03.848Z,38.33
2019-02-07T06:06:30.580Z,41.67
2019-02-07T06:08:57.433Z,44.57
2019-02-07T06:11:24.262Z,39.20
2019-02-07T06:13:51.011Z,38.03
2019-02-07T06:16:17.741Z,41.87
2019-02-07T06:18:44.490Z,31.97
2019-02-07T06:21:11.219Z,39.17
2019-02-07T06:23:38.064Z,40.97
2019-02-07T06:26:05.321Z,35.80
2019-02-07T06:28:32.067Z,44.37
2019-02-07T06:30:58.904Z,40.50
2019-02-07T06:33:25.632Z,37.67
2019-02-07T06:35:52.473Z,37.37
2019-02-07T06:38:19.423Z,38.33
2019-02-07T06:40:46.341Z,33.60
2019-02-07T06:43:13.171Z,35.93
2019-02-07T06:45:40.157Z,38.40
2019-02-07T06:48:06.993Z,38.50
2019-02-07T06:50:33.739Z,31.23
2019-02-07T06:53:00.485Z,28.10
2019-02-07T06:55:27.321Z,33.53
2019-02-07T06:57:54.049Z,35.73
2019-02-07T07:00:20.903Z,33.57
2019-02-07T07:02:47.950Z,36.10
2019-02-07T07:05:14.690Z,37.47
2019-02-07T07:07:41.620Z,33.13
2019-02-07T07:10:08.368Z,29.60
2019-02-07T07:12:35.217Z,37.10
2019-02-07T07:15:01.956Z,36.70
2019-02-07T07:17:28.683Z,31.93
2019-02-07T07:19:55.421Z,32.57
2019-02-07T07:22:22.158Z,30.50
2019-02-07T07:24:49.523Z,37.17
2019-02-07T07:27:16.379Z,38.13
2019-02-07T07:29:43.196Z,36.17
2019-02-07T07:32:09.936Z,36.87
2019-02-07T07:34:36.673Z,33.77
2019-02-07T07:37:03.526Z,36.70
2019-02-07T07:39:30.545Z,38.10
2019-02-07T07:41:57.315Z,33.87
2019-02-07T07:44:24.156Z,37.50
2019-02-07T07:46:50.890Z,39.53
2019-02-07T07:49:17.727Z,39.47
2019-02-07T07:51:44.469Z,44.17
2019-02-07T07:54:11.211Z,38.37
2019-02-07T07:56:38.157Z,41.73
2019-02-07T07:59:04.891Z,43.23
2019-02-07T08:01:31.740Z,39.57
2019-02-07T08:03:58.486Z,39.37
2019-02-07T08:06:25.204Z,38.03
2019-02-07T08:08:51.951Z,35.77
2019-02-07T08:11:18.688Z,42.67
2019-02-07T08:13:45.534Z,41.00
2019-02-07T08:16:12.587Z,37.20
2019-02-07T08:18:39.311Z,38.83
2019-02-07T08:21:06.062Z,40.87
2019-02-07T08:23:32.907Z,33.80
2019-02-07T08:26:00.056Z,36.27
2019-02-07T08:28:26.838Z,33.30
2019-02-07T08:30:53.581Z,35.57
2019-02-07T08:33:20.891Z,36.53
2019-02-07T08:35:47.611Z,34.47
2019-02-07T08:38:14.458Z,34.77
2019-02-07T08:40:41.207Z,35.80
2019-02-07T08:43:08.051Z,38.53
2019-02-07T08:45:34.903Z,36.77
2019-02-07T08:48:03.931Z,34.73
2019-02-07T08:50:30.619Z,29.23
2019-02-07T08:52:57.318Z,30.30
2019-02-07T08:55:24.086Z,34.87
2019-02-07T08:57:50.837Z,32.40
2019-02-07T09:00:17.577Z,33.33
2019-02-07T09:02:51.616Z,32.30
2019-02-07T09:05:12.744Z,33.20
2019-02-07T09:07:39.525Z,33.80
2019-02-07T09:10:06.569Z,34.87
2019-02-07T09:12:33.314Z,34.90
2019-02-07T09:15:00.302Z,30.53
2019-02-07T09:17:27.107Z,34.67
2019-02-07T09:19:53.957Z,33.47
2019-02-07T09:22:23.691Z,33.97
2019-02-07T09:24:49.261Z,31.40
2019-02-07T09:27:16.614Z,33.30
2019-02-07T09:29:43.311Z,35.90
2019-02-07T09:32:10.100Z,31.52
2019-02-07T09:34:36.829Z,34.70
2019-02-07T09:37:03.581Z,33.23
2019-02-07T09:39:30.428Z,32.60
2019-02-07T09:41:57.250Z,34.65
2019-02-07T09:44:24.106Z,33.58
2019-02-07T09:46:51.250Z,32.00
2019-02-07T09:49:17.985Z,33.95
2019-02-07T09:51:44.838Z,33.73
2019-02-07T09:54:11.577Z,34.95
2019-02-07T09:56:38.302Z,31.33
2019-02-07T09:59:05.050Z,32.28
2019-02-07T10:01:31.795Z,33.65
2019-02-07T10:03:58.621Z,27.67
2019-02-07T10:06:25.362Z,29.45
2019-02-07T10:08:52.100Z,32.03
2019-02-07T10:11:19.043Z,30.72
2019-02-07T10:13:45.793Z,28.85
2019-02-07T10:16:12.626Z,30.05
2019-02-07T10:18:39.362Z,31.75
2019-02-07T10:21:06.102Z,32.40
2019-02-07T10:23:32.948Z,30.52
2019-02-07T10:25:59.686Z,32.08
2019-02-07T10:28:26.536Z,29.65
2019-02-07T10:30:53.397Z,29.57
2019-02-07T10:33:20.224Z,28.05
2019-02-07T10:35:47.060Z,27.37
2019-02-07T10:38:14.006Z,28.50
2019-02-07T10:40:40.844Z,28.42
2019-02-07T10:43:07.679Z,28.27
2019-02-07T10:45:34.426Z,27.93
2019-02-07T10:48:01.268Z,26.48
2019-02-07T10:50:28.119Z,27.70
2019-02-07T10:52:54.955Z,27.37
2019-02-07T10:55:21.682Z,28.50
2019-02-07T10:57:48.405Z,27.45
2019-02-07T11:00:15.580Z,23.73
2019-02-07T11:02:42.311Z,25.27
2019-02-07T11:05:09.153Z,29.37
2019-02-07T11:07:35.901Z,26.57
2019-02-07T11:10:02.742Z,24.37
2019-02-07T11:12:29.469Z,26.23
2019-02-07T11:14:56.219Z,23.05
2019-02-07T11:17:23.052Z,25.55
2019-02-07T11:19:50.576Z,24.40
2019-02-07T11:22:17.358Z,23.80
2019-02-07T11:24:44.200Z,22.80
2019-02-07T11:27:11.123Z,23.70
2019-02-07T11:29:38.283Z,23.00
2019-02-07T11:32:05.032Z,22.03
2019-02-07T11:34:31.763Z,22.67
2019-02-07T11:36:58.718Z,22.73
2019-02-07T11:39:25.445Z,20.80
2019-02-07T11:41:53.453Z,19.33
2019-02-07T11:44:20.155Z,20.97
2019-02-07T11:46:48.791Z,21.37
2019-02-07T11:49:15.268Z,20.67
2019-02-07T11:51:41.965Z,21.60
2019-02-07T11:54:09.093Z,20.50
2019-02-07T11:56:35.803Z,23.00
2019-02-07T11:59:02.650Z,18.85
2019-02-07T12:01:29.489Z,20.77
2019-02-07T12:03:56.181Z,21.05
2019-02-07T12:06:23.057Z,20.92
2019-02-07T12:08:49.807Z,22.73
2019-02-07T12:11:16.651Z,20.92
2019-02-07T12:13:43.377Z,25.15
2019-02-07T12:16:10.120Z,25.00
2019-02-07T12:18:36.960Z,26.97
2019-02-07T12:21:03.707Z,29.15
2019-02-07T12:23:30.455Z,29.55
2019-02-07T12:25:57.177Z,26.83
2019-02-07T12:28:23.945Z,27.50
2019-02-07T12:30:51.067Z,25.73
2019-02-07T12:33:17.807Z,30.47
2019-02-07T12:35:44.564Z,30.23
2019-02-07T12:38:11.284Z,31.40
2019-02-07T12:40:38.023Z,31.10
2019-02-07T12:43:04.864Z,26.73
2019-02-07T12:45:31.577Z,29.40
2019-02-07T12:47:58.345Z,28.57
2019-02-07T12:50:25.300Z,26.73
2019-02-07T12:52:52.038Z,31.43
2019-02-07T12:55:18.881Z,28.80
2019-02-07T12:57:45.608Z,30.50
2019-02-07T13:00:12.346Z,29.37
2019-02-07T13:02:39.200Z,30.23
2019-02-07T13:05:05.937Z,31.37
2019-02-07T13:07:33.079Z,32.00
2019-02-07T13:09:59.815Z,33.17
2019-02-07T13:12:26.615Z,31.67
2019-02-07T13:14:53.444Z,25.07
2019-02-07T13:17:20.248Z,32.00
2019-02-07T13:19:47.082Z,27.30
2019-02-07T13:22:13.829Z,25.93
2019-02-07T13:24:41.089Z,27.00
2019-02-07T13:27:07.811Z,31.90
2019-02-07T13:29:34.779Z,27.70
2019-02-07T13:32:01.721Z,29.33
2019-02-07T13:34:28.441Z,28.97
2019-02-07T13:36:55.193Z,28.17
2019-02-07T13:39:21.917Z,29.70
2019-02-07T13:41:48.654Z,32.13
2019-02-07T13:44:15.598Z,30.47
2019-02-07T13:46:43.449Z,26.47
2019-02-07T13:49:10.205Z,28.60
2019-02-07T13:51:36.953Z,28.37
2019-02-07T13:54:03.692Z,25.83
2019-02-07T13:56:30.607Z,27.70
2019-02-07T13:58:57.479Z,25.52
2019-02-07T14:01:24.615Z,24.85
2019-02-07T14:03:51.368Z,26.65
2019-02-07T14:06:18.110Z,25.12
2019-02-07T14:08:44.947Z,23.07
2019-02-07T14:11:11.676Z,22.35
2019-02-07T14:13:41.042Z,24.15
2019-02-07T14:16:06.792Z,24.75
2019-02-07T14:18:33.544Z,23.75
2019-02-07T14:21:00.373Z,27.13
2019-02-07T14:23:29.796Z,23.15
2019-02-07T14:25:55.504Z,24.65
2019-02-07T14:28:22.345Z,23.95
2019-02-07T14:30:49.072Z,24.10
2019-02-07T14:33:16.050Z,24.47
2019-02-07T14:35:42.757Z,22.35
2019-02-07T14:38:09.690Z,24.15
2019-02-07T14:40:36.450Z,21.10
2019-02-07T14:43:03.297Z,22.35
2019-02-07T14:45:30.135Z,19.67
2019-02-07T14:47:57.076Z,20.73
2019-02-07T14:50:23.810Z,22.57
2019-02-07T14:52:50.542Z,19.87
2019-02-07T14:55:17.594Z,18.47
2019-02-07T14:57:44.432Z,19.93
2019-02-07T15:00:11.188Z,19.27
2019-02-07T15:02:37.920Z,20.67
2019-02-07T15:05:04.761Z,20.87
2019-02-07T15:07:31.545Z,20.87
2019-02-07T15:09:58.293Z,17.43
2019-02-07T15:12:25.102Z,19.27
2019-02-07T15:14:52.323Z,20.90
2019-02-07T15:17:19.206Z,17.93
2019-02-07T15:19:46.028Z,21.47
2019-02-07T15:22:12.867Z,19.07
2019-02-07T15:24:39.594Z,21.20
2019-02-07T15:27:06.432Z,22.60
2019-02-07T15:29:33.382Z,17.43
2019-02-07T15:32:00.125Z,20.00
2019-02-07T15:34:27.170Z,17.50
2019-02-07T15:36:54.574Z,16.73
2019-02-07T15:39:22.275Z,18.87
2019-02-07T15:41:49.026Z,13.90
2019-02-07T15:44:15.971Z,16.07
2019-02-07T15:46:42.801Z,17.00
2019-02-07T15:49:09.545Z,18.07
2019-02-07T15:51:36.391Z,16.00
2019-02-07T15:54:03.337Z,17.67
2019-02-07T15:56:30.178Z,22.63
2019-02-07T15:58:57.008Z,15.73
2019-02-07T16:01:23.757Z,16.90
2019-02-07T16:03:50.497Z,17.07
2019-02-07T16:06:17.328Z,16.53
2019-02-07T16:08:44.075Z,22.60
2019-02-07T16:11:10.917Z,18.47
2019-02-07T16:13:37.864Z,18.03
2019-02-07T16:16:04.602Z,21.73
2019-02-07T16:18:31.361Z,18.30
2019-02-07T16:20:58.187Z,20.47
2019-02-07T16:23:25.031Z,20.23
2019-02-07T16:25:51.754Z,19.23
2019-02-07T16:28:20.312Z,20.97
2019-02-07T16:30:46.977Z,20.83
2019-02-07T16:33:13.724Z,20.47
2019-02-07T16:35:40.569Z,19.83
2019-02-07T16:38:07.294Z,20.73
2019-02-07T16:40:34.036Z,19.10
2019-02-07T16:43:00.875Z,21.67
2019-02-07T16:45:27.623Z,22.40
2019-02-07T16:47:54.365Z,18.00
2019-02-07T16:50:21.195Z,19.37
2019-02-07T16:52:47.933Z,24.70
2019-02-07T16:55:14.675Z,21.90
2019-02-07T16:57:41.526Z,21.67
2019-02-07T17:00:08.253Z,23.03
2019-02-07T17:02:35.072Z,23.77
2019-02-07T17:05:02.143Z,24.40
2019-02-07T17:07:29.188Z,23.77
2019-02-07T17:09:55.941Z,24.17
2019-02-07T17:12:22.788Z,26.47
2019-02-07T17:14:49.627Z,29.63
2019-02-07T17:17:16.352Z,26.90
2019-02-07T17:19:43.203Z,30.17
2019-02-07T17:22:09.943Z,29.57
2019-02-07T17:24:36.677Z,25.47
2019-02-07T17:27:03.720Z,31.47
2019-02-07T17:29:30.459Z,30.33
2019-02-07T17:31:57.203Z,27.90
2019-02-07T17:34:24.051Z,30.63
2019-02-07T17:36:50.777Z,28.00
2019-02-07T17:39:17.531Z,27.80
2019-02-07T17:41:44.371Z,26.50
2019-02-07T17:44:11.113Z,31.23
2019-02-07T17:46:38.147Z,28.60
2019-02-07T17:49:04.989Z,35.17
2019-02-07T17:51:31.739Z,32.33
2019-02-07T17:53:58.467Z,33.93
2019-02-07T17:56:25.414Z,31.53
2019-02-07T17:58:52.156Z,23.30
2019-02-07T18:01:18.897Z,28.77
2019-02-07T18:03:45.729Z,33.43
2019-02-07T18:06:12.793Z,31.93
2019-02-07T18:08:39.528Z,35.67
2019-02-07T18:11:06.776Z,34.97
2019-02-07T18:13:34.238Z,36.40
2019-02-07T18:16:01.068Z,30.50
2019-02-07T18:18:27.857Z,37.93
2019-02-07T18:20:54.659Z,42.73
2019-02-07T18:23:22.320Z,40.43
2019-02-07T18:25:49.158Z,39.97
2019-02-07T18:28:15.888Z,41.87
2019-02-07T18:30:42.635Z,38.40
2019-02-07T18:33:09.485Z,41.33
2019-02-07T18:35:36.207Z,46.07
2019-02-07T18:38:02.963Z,42.93
2019-02-07T18:40:29.705Z,38.10
2019-02-07T18:42:56.546Z,40.53
2019-02-07T18:45:23.390Z,48.33
2019-02-07T18:47:50.267Z,42.63
2019-02-07T18:50:17.135Z,45.23
2019-02-07T18:52:43.970Z,51.13
2019-02-07T18:55:10.776Z,55.00
2019-02-07T18:57:37.581Z,59.80
2019-02-07T19:00:04.541Z,43.70
2019-02-07T19:02:31.311Z,43.90
2019-02-07T19:04:58.213Z,50.13
2019-02-07T19:07:24.961Z,46.33
2019-02-07T19:09:51.682Z,51.23
2019-02-07T19:12:18.430Z,46.87
2019-02-07T19:14:45.494Z,43.53
2019-02-07T19:17:12.424Z,46.53
2019-02-07T19:19:39.172Z,44.83
2019-02-07T19:22:05.894Z,47.60
2019-02-07T19:24:32.942Z,46.07
2019-02-07T19:26:59.678Z,43.50
2019-02-07T19:29:26.628Z,47.87
2019-02-07T19:31:53.377Z,51.63
2019-02-07T19:34:20.309Z,46.60
2019-02-07T19:36:47.059Z,53.13
2019-02-07T19:39:13.989Z,53.70
2019-02-07T19:41:40.728Z,54.37
2019-02-07T19:44:07.468Z,52.80
2019-02-07T19:46:34.208Z,62.33
2019-02-07T19:49:00.948Z,60.27
2019-02-07T19:51:27.688Z,63.87
2019-02-07T19:53:54.437Z,62.27
2019-02-07T19:56:21.175Z,60.93
2019-02-07T19:58:47.917Z,65.87
2019-02-07T20:01:14.643Z,60.63
2019-02-07T20:03:41.472Z,58.30
2019-02-07T20:06:08.224Z,59.43
2019-02-07T20:08:35.184Z,57.53
2019-02-07T20:11:01.915Z,61.23
2019-02-07T20:13:28.652Z,58.87
2019-02-07T20:15:55.655Z,54.63
2019-02-07T20:18:22.600Z,67.73
2019-02-07T20:20:49.378Z,56.17
2019-02-07T20:23:16.532Z,54.83
2019-02-07T20:25:43.597Z,61.30
2019-02-07T20:28:10.423Z,60.67
2019-02-07T20:30:37.364Z,61.13
2019-02-07T20:33:04.232Z,58.90
2019-02-07T20:35:31.336Z,70.33
2019-02-07T20:37:58.088Z,66.27
2019-02-07T20:40:24.827Z,64.00
2019-02-07T20:42:51.593Z,66.30
2019-02-07T20:45:18.980Z,58.17
2019-02-07T20:47:47.115Z,60.70
2019-02-07T20:50:13.945Z,59.70
2019-02-07T20:52:40.673Z,54.40
2019-02-07T20:55:07.429Z,58.30
2019-02-07T20:57:34.476Z,67.03
2019-02-07T21:00:01.299Z,58.13
2019-02-07T21:02:28.450Z,54.00
2019-02-07T21:04:55.216Z,62.17
2019-02-07T21:07:22.245Z,57.63
2019-02-07T21:09:48.999Z,58.20
2019-02-07T21:12:16.037Z,61.17
2019-02-07T21:14:42.872Z,64.70
2019-02-07T21:17:09.631Z,67.77
2019-02-07T21:19:36.455Z,65.50
2019-02-07T21:22:03.183Z,61.63
2019-02-07T21:24:29.933Z,63.57
2019-02-07T21:26:57.288Z,56.87
2019-02-07T21:29:24.420Z,53.53
2019-02-07T21:31:53.537Z,58.57
2019-02-07T21:34:22.968Z,57.97
2019-02-07T21:36:50.331Z,67.60
2019-02-07T21:39:17.140Z,64.20
2019-02-07T21:41:44.199Z,63.23
2019-02-07T21:44:11.108Z,54.70
2019-02-07T21:46:38.677Z,59.37
2019-02-07T21:49:05.415Z,60.73
2019-02-07T21:51:32.550Z,52.40
2019-02-07T21:53:59.751Z,64.10
2019-02-07T21:56:26.662Z,58.93
2019-02-07T21:58:53.692Z,52.93
2019-02-07T22:01:21.248Z,65.90
2019-02-07T22:03:48.068Z,59.90
2019-02-07T22:06:15.181Z,61.97
2019-02-07T22:08:42.011Z,58.23
2019-02-07T22:11:08.838Z,61.07
2019-02-07T22:13:35.776Z,54.73
2019-02-07T22:16:03.353Z,57.37
2019-02-07T22:18:30.067Z,59.30
2019-02-07T22:20:56.838Z,60.97
2019-02-07T22:23:23.722Z,66.50
2019-02-07T22:25:50.849Z,60.53
2019-02-07T22:28:17.635Z,61.13
2019-02-07T22:30:44.379Z,55.33
2019-02-07T22:33:11.121Z,56.53
2019-02-07T22:35:37.864Z,58.53
2019-02-07T22:38:04.593Z,65.17
2019-02-07T22:40:31.341Z,53.17
2019-02-07T22:42:58.182Z,56.43
2019-02-07T22:45:25.335Z,53.30
2019-02-07T22:47:52.072Z,50.57
2019-02-07T22:50:19.021Z,50.30
2019-02-07T22:52:45.857Z,46.03
2019-02-07T22:55:12.595Z,45.97
2019-02-07T22:57:39.429Z,43.30
2019-02-07T23:00:06.168Z,49.60
2019-02-07T23:02:32.939Z,47.37
2019-02-07T23:04:59.884Z,48.00
2019-02-07T23:07:26.883Z,42.97
2019-02-07T23:09:53.679Z,43.33
2019-02-07T23:12:20.498Z,44.07
2019-02-07T23:14:47.231Z,54.67
2019-02-07T23:17:13.957Z,43.47
2019-02-07T23:19:41.216Z,45.93
2019-02-07T23:22:08.221Z,44.93
2019-02-07T23:24:34.993Z,49.07
2019-02-07T23:27:01.751Z,44.13
2019-02-07T23:29:28.486Z,48.90
2019-02-07T23:31:55.216Z,45.83
2019-02-07T23:34:21.950Z,40.13
2019-02-07T23:36:48.699Z,52.03
2019-02-07T23:39:15.447Z,49.67
2019-02-07T23:41:42.285Z,47.53
2019-02-07T23:44:09.116Z,46.13
2019-02-07T23:46:35.859Z,43.20
2019-02-07T23:49:02.558Z,51.50
2019-02-07T23:51:29.329Z,40.27
2019-02-07T23:53:56.069Z,42.67
2019-02-07T23:56:22.819Z,43.30
2019-02-07T23:58:49.664Z,49.37
